sensor_id;sensor_type;location;lat;lon;timestamp;temperature;humidity
15003;DHT22;7597;53.590;10.020;2023-02-08T00:01:54;-1.80;1.00
15003;DHT22;7597;53.590;10.020;2023-02-08T00:04:21;-1.90;1.00
15003;DHT22;7597;53.590;10.020;2023-02-08T00:06:48;-2.00;1.00
15003;DHT22;7597;53.590;10.020;2023-02-08T00:09:14;-2.10;1.00
15003;DHT22;7597;53.590;10.020;2023-02-08T00:11:41;-2.00;1.00
15003;DHT22;7597;53.590;10.020;2023-02-08T00:14:08;-2.00;1.00
15003;DHT22;7597;53.590;10.020;2023-02-08T00:16:34;-2.00;1.00
15003;DHT22;7597;53.590;10.020;2023-02-08T00:19:01;-2.00;1.00
15003;DHT22;7597;53.590;10.020;2023-02-08T00:21:28;-2.10;1.00
15003;DHT22;7597;53.590;10.020;2023-02-08T00:23:55;-2.30;1.00
15003;DHT22;7597;53.590;10.020;2023-02-08T00:26:21;-2.20;1.00
15003;DHT22;7597;53.590;10.020;2023-02-08T00:28:48;-2.20;1.00
15003;DHT22;7597;53.590;10.020;2023-02-08T00:31:15;-2.10;1.00
15003;DHT22;7597;53.590;10.020;2023-02-08T00:33:41;-2.10;1.00
15003;DHT22;7597;53.590;10.020;2023-02-08T00:36:09;-2.00;1.00
15003;DHT22;7597;53.590;10.020;2023-02-08T00:38:35;-2.00;1.00
15003;DHT22;7597;53.590;10.020;2023-02-08T00:41:01;-2.10;1.00
15003;DHT22;7597;53.590;10.020;2023-02-08T00:43:28;-2.00;1.00
15003;DHT22;7597;53.590;10.020;2023-02-08T00:45:55;-2.10;1.00
15003;DHT22;7597;53.590;10.020;2023-02-08T00:48:21;-2.10;1.00
15003;DHT22;7597;53.590;10.020;2023-02-08T00:50:57;-2.10;1.00
15003;DHT22;7597;53.590;10.020;2023-02-08T00:53:24;-2.10;1.00
15003;DHT22;7597;53.590;10.020;2023-02-08T00:55:51;-2.20;1.00
15003;DHT22;7597;53.590;10.020;2023-02-08T00:58:18;-2.20;1.00
15003;DHT22;7597;53.590;10.020;2023-02-08T01:00:44;-2.10;1.00
15003;DHT22;7597;53.590;10.020;2023-02-08T01:03:11;-2.10;1.00
15003;DHT22;7597;53.590;10.020;2023-02-08T01:05:38;-2.20;1.00
15003;DHT22;7597;53.590;10.020;2023-02-08T01:08:04;-2.30;1.00
15003;DHT22;7597;53.590;10.020;2023-02-08T01:10:31;-2.30;1.00
15003;DHT22;7597;53.590;10.020;2023-02-08T01:12:57;-2.40;1.00
15003;DHT22;7597;53.590;10.020;2023-02-08T01:15:24;-2.00;1.00
15003;DHT22;7597;53.590;10.020;2023-02-08T01:17:54;-2.50;1.00
15003;DHT22;7597;53.590;10.020;2023-02-08T01:20:21;-2.50;1.00
15003;DHT22;7597;53.590;10.020;2023-02-08T01:22:47;-2.40;1.00
15003;DHT22;7597;53.590;10.020;2023-02-08T01:25:14;-2.50;1.00
15003;DHT22;7597;53.590;10.020;2023-02-08T01:27:41;-2.60;1.00
15003;DHT22;7597;53.590;10.020;2023-02-08T01:30:08;-2.70;1.00
15003;DHT22;7597;53.590;10.020;2023-02-08T01:32:34;-2.70;1.00
15003;DHT22;7597;53.590;10.020;2023-02-08T01:35:01;-2.70;1.00
15003;DHT22;7597;53.590;10.020;2023-02-08T01:37:28;-2.60;1.00
15003;DHT22;7597;53.590;10.020;2023-02-08T01:39:54;-2.60;1.00
15003;DHT22;7597;53.590;10.020;2023-02-08T01:42:21;-2.60;1.00
15003;DHT22;7597;53.590;10.020;2023-02-08T01:47:37;-2.60;1.00
15003;DHT22;7597;53.590;10.020;2023-02-08T01:50:03;-2.50;1.00
15003;DHT22;7597;53.590;10.020;2023-02-08T01:52:31;-2.50;1.00
15003;DHT22;7597;53.590;10.020;2023-02-08T01:54:59;-2.50;1.00
15003;DHT22;7597;53.590;10.020;2023-02-08T01:57:24;-2.50;1.00
15003;DHT22;7597;53.590;10.020;2023-02-08T02:02:53;-2.40;1.00
15003;DHT22;7597;53.590;10.020;2023-02-08T02:05:21;-2.40;1.00
15003;DHT22;7597;53.590;10.020;2023-02-08T02:07:48;-2.30;1.00
15003;DHT22;7597;53.590;10.020;2023-02-08T02:10:18;-2.30;1.00
15003;DHT22;7597;53.590;10.020;2023-02-08T02:12:43;-2.30;1.00
15003;DHT22;7597;53.590;10.020;2023-02-08T02:15:18;-2.30;1.00
15003;DHT22;7597;53.590;10.020;2023-02-08T02:17:45;-2.30;1.00
15003;DHT22;7597;53.590;10.020;2023-02-08T02:20:32;-2.30;1.00
15003;DHT22;7597;53.590;10.020;2023-02-08T02:25:44;-2.40;1.00
15003;DHT22;7597;53.590;10.020;2023-02-08T02:33:46;-2.60;1.00
15003;DHT22;7597;53.590;10.020;2023-02-08T02:36:22;-2.60;1.00
15003;DHT22;7597;53.590;10.020;2023-02-08T02:40:00;-2.70;1.00
15003;DHT22;7597;53.590;10.020;2023-02-08T02:44:13;-2.90;1.00
15003;DHT22;7597;53.590;10.020;2023-02-08T02:46:40;-2.80;1.00
15003;DHT22;7597;53.590;10.020;2023-02-08T02:49:14;-2.80;1.00
15003;DHT22;7597;53.590;10.020;2023-02-08T02:51:44;-2.70;1.00
15003;DHT22;7597;53.590;10.020;2023-02-08T02:54:44;-2.70;1.00
15003;DHT22;7597;53.590;10.020;2023-02-08T02:56:55;-2.60;1.00
15003;DHT22;7597;53.590;10.020;2023-02-08T02:59:21;-2.40;1.00
15003;DHT22;7597;53.590;10.020;2023-02-08T03:01:47;-2.40;1.00
15003;DHT22;7597;53.590;10.020;2023-02-08T03:04:16;-2.40;1.00
15003;DHT22;7597;53.590;10.020;2023-02-08T03:09:56;-2.30;1.00
15003;DHT22;7597;53.590;10.020;2023-02-08T03:14:58;-2.50;1.00
15003;DHT22;7597;53.590;10.020;2023-02-08T03:17:32;-2.50;1.00
15003;DHT22;7597;53.590;10.020;2023-02-08T03:22:57;-2.60;1.00
15003;DHT22;7597;53.590;10.020;2023-02-08T03:25:24;-2.70;1.00
15003;DHT22;7597;53.590;10.020;2023-02-08T03:28:07;-2.70;1.00
15003;DHT22;7597;53.590;10.020;2023-02-08T03:30:37;-2.30;1.00
15003;DHT22;7597;53.590;10.020;2023-02-08T03:33:04;-2.70;1.00
15003;DHT22;7597;53.590;10.020;2023-02-08T03:35:34;-2.70;1.00
15003;DHT22;7597;53.590;10.020;2023-02-08T03:38:03;-2.70;1.00
15003;DHT22;7597;53.590;10.020;2023-02-08T03:43:19;-2.70;1.00
15003;DHT22;7597;53.590;10.020;2023-02-08T03:45:49;-2.70;1.00
15003;DHT22;7597;53.590;10.020;2023-02-08T03:48:13;-2.70;1.00
15003;DHT22;7597;53.590;10.020;2023-02-08T03:50:39;-2.80;1.00
15003;DHT22;7597;53.590;10.020;2023-02-08T03:53:06;-2.80;1.00
15003;DHT22;7597;53.590;10.020;2023-02-08T03:55:34;-2.80;1.00
15003;DHT22;7597;53.590;10.020;2023-02-08T03:58:06;-2.80;1.00
15003;DHT22;7597;53.590;10.020;2023-02-08T04:00:32;-2.80;1.00
15003;DHT22;7597;53.590;10.020;2023-02-08T04:03:00;-2.80;1.00
15003;DHT22;7597;53.590;10.020;2023-02-08T04:05:25;-2.70;1.00
15003;DHT22;7597;53.590;10.020;2023-02-08T04:07:51;-2.70;1.00
15003;DHT22;7597;53.590;10.020;2023-02-08T04:10:18;-2.70;1.00
15003;DHT22;7597;53.590;10.020;2023-02-08T04:12:46;-2.80;1.00
15003;DHT22;7597;53.590;10.020;2023-02-08T04:15:12;-2.80;1.00
15003;DHT22;7597;53.590;10.020;2023-02-08T04:17:39;-2.90;1.00
15003;DHT22;7597;53.590;10.020;2023-02-08T04:20:06;-2.90;1.00
15003;DHT22;7597;53.590;10.020;2023-02-08T04:22:33;-2.90;1.00
15003;DHT22;7597;53.590;10.020;2023-02-08T04:24:59;-2.90;1.00
15003;DHT22;7597;53.590;10.020;2023-02-08T04:27:26;-2.90;1.00
15003;DHT22;7597;53.590;10.020;2023-02-08T04:29:52;-2.90;1.00
15003;DHT22;7597;53.590;10.020;2023-02-08T04:32:19;-2.90;1.00
15003;DHT22;7597;53.590;10.020;2023-02-08T04:34:46;-2.80;1.00
15003;DHT22;7597;53.590;10.020;2023-02-08T04:37:12;-2.90;1.00
15003;DHT22;7597;53.590;10.020;2023-02-08T04:39:39;-2.90;1.00
15003;DHT22;7597;53.590;10.020;2023-02-08T04:42:06;-2.90;1.00
15003;DHT22;7597;53.590;10.020;2023-02-08T04:44:33;-3.00;1.00
15003;DHT22;7597;53.590;10.020;2023-02-08T04:47:00;-3.00;1.00
15003;DHT22;7597;53.590;10.020;2023-02-08T04:49:27;-3.00;1.00
15003;DHT22;7597;53.590;10.020;2023-02-08T04:51:53;-3.00;1.00
15003;DHT22;7597;53.590;10.020;2023-02-08T04:54:20;-3.00;1.00
15003;DHT22;7597;53.590;10.020;2023-02-08T04:56:47;-3.10;1.00
15003;DHT22;7597;53.590;10.020;2023-02-08T04:59:13;-3.10;1.00
15003;DHT22;7597;53.590;10.020;2023-02-08T05:01:40;-3.00;1.00
15003;DHT22;7597;53.590;10.020;2023-02-08T05:04:07;-3.10;1.00
15003;DHT22;7597;53.590;10.020;2023-02-08T05:06:33;-3.10;1.00
15003;DHT22;7597;53.590;10.020;2023-02-08T05:09:00;-3.20;1.00
15003;DHT22;7597;53.590;10.020;2023-02-08T05:11:27;-3.10;1.00
15003;DHT22;7597;53.590;10.020;2023-02-08T05:13:53;-3.10;1.00
15003;DHT22;7597;53.590;10.020;2023-02-08T05:16:20;-3.00;1.00
15003;DHT22;7597;53.590;10.020;2023-02-08T05:18:47;-2.90;1.00
15003;DHT22;7597;53.590;10.020;2023-02-08T05:21:14;-2.50;1.00
15003;DHT22;7597;53.590;10.020;2023-02-08T05:23:41;-2.90;1.00
15003;DHT22;7597;53.590;10.020;2023-02-08T05:26:08;-2.90;1.00
15003;DHT22;7597;53.590;10.020;2023-02-08T05:28:34;-3.00;1.00
15003;DHT22;7597;53.590;10.020;2023-02-08T05:31:08;-3.00;1.00
15003;DHT22;7597;53.590;10.020;2023-02-08T05:33:33;-3.00;1.00
15003;DHT22;7597;53.590;10.020;2023-02-08T05:35:59;-3.00;1.00
15003;DHT22;7597;53.590;10.020;2023-02-08T05:38:26;-3.00;1.00
15003;DHT22;7597;53.590;10.020;2023-02-08T05:40:53;-3.10;1.00
15003;DHT22;7597;53.590;10.020;2023-02-08T05:43:19;-3.00;1.00
15003;DHT22;7597;53.590;10.020;2023-02-08T05:45:46;-3.10;1.00
15003;DHT22;7597;53.590;10.020;2023-02-08T05:48:13;-3.00;1.00
15003;DHT22;7597;53.590;10.020;2023-02-08T05:50:39;-3.10;1.00
15003;DHT22;7597;53.590;10.020;2023-02-08T05:53:06;-3.00;1.00
15003;DHT22;7597;53.590;10.020;2023-02-08T05:55:33;-3.10;1.00
15003;DHT22;7597;53.590;10.020;2023-02-08T05:58:00;-3.10;1.00
15003;DHT22;7597;53.590;10.020;2023-02-08T06:00:26;-3.10;1.00
15003;DHT22;7597;53.590;10.020;2023-02-08T06:02:53;-3.10;1.00
15003;DHT22;7597;53.590;10.020;2023-02-08T06:05:20;-3.10;1.00
15003;DHT22;7597;53.590;10.020;2023-02-08T06:07:48;-3.10;1.00
15003;DHT22;7597;53.590;10.020;2023-02-08T06:10:14;-3.10;1.00
15003;DHT22;7597;53.590;10.020;2023-02-08T06:12:41;-3.10;1.00
15003;DHT22;7597;53.590;10.020;2023-02-08T06:15:08;-3.10;1.00
15003;DHT22;7597;53.590;10.020;2023-02-08T06:17:37;-3.10;1.00
15003;DHT22;7597;53.590;10.020;2023-02-08T06:20:05;-2.90;1.00
15003;DHT22;7597;53.590;10.020;2023-02-08T06:22:33;-3.20;1.00
15003;DHT22;7597;53.590;10.020;2023-02-08T06:24:59;-3.20;1.00
15003;DHT22;7597;53.590;10.020;2023-02-08T06:27:26;-3.30;1.00
15003;DHT22;7597;53.590;10.020;2023-02-08T06:29:53;-3.40;1.00
15003;DHT22;7597;53.590;10.020;2023-02-08T06:32:19;-3.40;1.00
15003;DHT22;7597;53.590;10.020;2023-02-08T06:34:46;-3.40;1.00
15003;DHT22;7597;53.590;10.020;2023-02-08T06:37:13;-3.50;1.00
15003;DHT22;7597;53.590;10.020;2023-02-08T06:39:39;-3.40;1.00
15003;DHT22;7597;53.590;10.020;2023-02-08T06:42:06;-3.40;1.00
15003;DHT22;7597;53.590;10.020;2023-02-08T06:44:33;-3.40;1.00
15003;DHT22;7597;53.590;10.020;2023-02-08T06:46:59;-3.30;1.00
15003;DHT22;7597;53.590;10.020;2023-02-08T06:49:26;-3.50;1.00
15003;DHT22;7597;53.590;10.020;2023-02-08T06:51:52;-3.50;1.00
15003;DHT22;7597;53.590;10.020;2023-02-08T06:54:19;-3.40;1.00
15003;DHT22;7597;53.590;10.020;2023-02-08T06:56:46;-3.40;1.00
15003;DHT22;7597;53.590;10.020;2023-02-08T06:59:13;-3.40;1.00
15003;DHT22;7597;53.590;10.020;2023-02-08T07:01:39;-3.40;1.00
15003;DHT22;7597;53.590;10.020;2023-02-08T07:04:06;-3.30;1.00
15003;DHT22;7597;53.590;10.020;2023-02-08T07:06:32;-3.30;1.00
15003;DHT22;7597;53.590;10.020;2023-02-08T07:08:59;-3.30;1.00
15003;DHT22;7597;53.590;10.020;2023-02-08T07:11:26;-3.30;1.00
15003;DHT22;7597;53.590;10.020;2023-02-08T07:13:52;-3.10;1.00
15003;DHT22;7597;53.590;10.020;2023-02-08T07:16:19;-3.00;1.00
15003;DHT22;7597;53.590;10.020;2023-02-08T07:18:46;-2.60;1.00
15003;DHT22;7597;53.590;10.020;2023-02-08T07:21:12;-2.30;1.00
15003;DHT22;7597;53.590;10.020;2023-02-08T07:23:39;-2.00;1.00
15003;DHT22;7597;53.590;10.020;2023-02-08T07:28:38;-1.20;1.00
15003;DHT22;7597;53.590;10.020;2023-02-08T07:31:06;-1.00;1.00
15003;DHT22;7597;53.590;10.020;2023-02-08T07:33:32;-0.60;1.00
15003;DHT22;7597;53.590;10.020;2023-02-08T07:35:59;-0.40;1.00
15003;DHT22;7597;53.590;10.020;2023-02-08T07:38:25;-0.20;1.00
15003;DHT22;7597;53.590;10.020;2023-02-08T07:41:04;0.30;1.00
15003;DHT22;7597;53.590;10.020;2023-02-08T07:43:29;0.30;1.00
15003;DHT22;7597;53.590;10.020;2023-02-08T07:45:56;0.40;1.00
15003;DHT22;7597;53.590;10.020;2023-02-08T07:48:23;1.00;1.00
15003;DHT22;7597;53.590;10.020;2023-02-08T07:50:49;1.30;1.00
15003;DHT22;7597;53.590;10.020;2023-02-08T07:53:16;1.40;1.00
15003;DHT22;7597;53.590;10.020;2023-02-08T07:55:44;1.80;1.00
15003;DHT22;7597;53.590;10.020;2023-02-08T07:58:09;1.80;1.00
15003;DHT22;7597;53.590;10.020;2023-02-08T08:00:36;1.90;1.00
15003;DHT22;7597;53.590;10.020;2023-02-08T08:03:02;1.90;1.00
15003;DHT22;7597;53.590;10.020;2023-02-08T08:05:29;1.70;1.00
15003;DHT22;7597;53.590;10.020;2023-02-08T08:07:56;1.50;1.00
15003;DHT22;7597;53.590;10.020;2023-02-08T08:10:22;1.40;1.00
15003;DHT22;7597;53.590;10.020;2023-02-08T08:12:49;1.20;1.00
15003;DHT22;7597;53.590;10.020;2023-02-08T08:15:16;1.20;1.00
15003;DHT22;7597;53.590;10.020;2023-02-08T08:17:42;1.20;1.00
15003;DHT22;7597;53.590;10.020;2023-02-08T08:20:09;1.60;1.00
15003;DHT22;7597;53.590;10.020;2023-02-08T08:22:36;2.10;1.00
15003;DHT22;7597;53.590;10.020;2023-02-08T08:25:04;3.00;1.00
15003;DHT22;7597;53.590;10.020;2023-02-08T08:27:31;3.60;1.00
15003;DHT22;7597;53.590;10.020;2023-02-08T08:29:57;4.20;1.00
15003;DHT22;7597;53.590;10.020;2023-02-08T08:32:24;4.10;1.00
15003;DHT22;7597;53.590;10.020;2023-02-08T08:34:51;3.70;1.00
15003;DHT22;7597;53.590;10.020;2023-02-08T08:37:17;3.40;1.00
15003;DHT22;7597;53.590;10.020;2023-02-08T08:39:44;3.40;1.00
15003;DHT22;7597;53.590;10.020;2023-02-08T08:42:11;3.60;1.00
15003;DHT22;7597;53.590;10.020;2023-02-08T08:44:37;3.40;1.00
15003;DHT22;7597;53.590;10.020;2023-02-08T08:47:04;4.20;1.00
15003;DHT22;7597;53.590;10.020;2023-02-08T08:49:31;5.30;1.00
15003;DHT22;7597;53.590;10.020;2023-02-08T08:51:57;5.60;1.00
15003;DHT22;7597;53.590;10.020;2023-02-08T08:54:24;5.60;1.00
15003;DHT22;7597;53.590;10.020;2023-02-08T08:56:51;5.70;1.00
15003;DHT22;7597;53.590;10.020;2023-02-08T08:59:18;5.60;1.00
15003;DHT22;7597;53.590;10.020;2023-02-08T09:01:45;5.80;1.00
15003;DHT22;7597;53.590;10.020;2023-02-08T09:04:12;5.70;1.00
15003;DHT22;7597;53.590;10.020;2023-02-08T09:06:39;5.70;1.00
15003;DHT22;7597;53.590;10.020;2023-02-08T09:09:05;6.30;1.00
15003;DHT22;7597;53.590;10.020;2023-02-08T09:11:32;6.60;1.00
15003;DHT22;7597;53.590;10.020;2023-02-08T09:14:01;6.60;1.00
15003;DHT22;7597;53.590;10.020;2023-02-08T09:19:09;6.50;1.00
15003;DHT22;7597;53.590;10.020;2023-02-08T09:21:36;7.30;1.00
15003;DHT22;7597;53.590;10.020;2023-02-08T09:24:03;7.90;1.00
15003;DHT22;7597;53.590;10.020;2023-02-08T09:26:30;7.90;1.00
15003;DHT22;7597;53.590;10.020;2023-02-08T09:28:57;6.70;1.00
15003;DHT22;7597;53.590;10.020;2023-02-08T09:31:25;6.40;1.00
15003;DHT22;7597;53.590;10.020;2023-02-08T09:33:52;7.10;1.00
15003;DHT22;7597;53.590;10.020;2023-02-08T09:36:21;7.80;1.00
15003;DHT22;7597;53.590;10.020;2023-02-08T09:38:47;7.80;1.00
15003;DHT22;7597;53.590;10.020;2023-02-08T09:52:38;9.50;1.00
15003;DHT22;7597;53.590;10.020;2023-02-08T09:55:51;10.20;1.00
15003;DHT22;7597;53.590;10.020;2023-02-08T09:58:02;10.60;1.00
15003;DHT22;7597;53.590;10.020;2023-02-08T10:00:35;10.30;1.00
15003;DHT22;7597;53.590;10.020;2023-02-08T10:03:00;10.10;1.00
15003;DHT22;7597;53.590;10.020;2023-02-08T10:05:27;10.50;1.00
15003;DHT22;7597;53.590;10.020;2023-02-08T10:07:57;10.40;1.00
15003;DHT22;7597;53.590;10.020;2023-02-08T10:10:36;10.60;1.00
15003;DHT22;7597;53.590;10.020;2023-02-08T10:13:21;9.80;1.00
15003;DHT22;7597;53.590;10.020;2023-02-08T10:15:57;9.40;1.00
15003;DHT22;7597;53.590;10.020;2023-02-08T10:18:30;10.00;1.00
15003;DHT22;7597;53.590;10.020;2023-02-08T10:23:58;9.10;1.00
15003;DHT22;7597;53.590;10.020;2023-02-08T10:26:46;7.60;1.00
15003;DHT22;7597;53.590;10.020;2023-02-08T10:29:36;7.70;1.00
15003;DHT22;7597;53.590;10.020;2023-02-08T10:32:14;9.10;1.00
15003;DHT22;7597;53.590;10.020;2023-02-08T10:34:59;10.40;1.00
15003;DHT22;7597;53.590;10.020;2023-02-08T10:37:30;10.00;1.00
15003;DHT22;7597;53.590;10.020;2023-02-08T10:40:07;10.00;1.00
15003;DHT22;7597;53.590;10.020;2023-02-08T10:42:26;9.60;1.00
15003;DHT22;7597;53.590;10.020;2023-02-08T10:45:03;9.60;1.00
15003;DHT22;7597;53.590;10.020;2023-02-08T10:47:38;8.50;1.00
15003;DHT22;7597;53.590;10.020;2023-02-08T10:52:40;8.90;1.00
15003;DHT22;7597;53.590;10.020;2023-02-08T10:55:14;8.50;1.00
15003;DHT22;7597;53.590;10.020;2023-02-08T10:57:41;8.90;1.00
15003;DHT22;7597;53.590;10.020;2023-02-08T11:00:11;8.90;1.00
15003;DHT22;7597;53.590;10.020;2023-02-08T11:02:40;9.00;1.00
15003;DHT22;7597;53.590;10.020;2023-02-08T11:05:10;9.40;1.00
15003;DHT22;7597;53.590;10.020;2023-02-08T11:07:35;9.70;1.00
15003;DHT22;7597;53.590;10.020;2023-02-08T11:10:12;9.90;1.00
15003;DHT22;7597;53.590;10.020;2023-02-08T11:12:37;9.80;1.00
15003;DHT22;7597;53.590;10.020;2023-02-08T11:15:05;10.00;1.00
15003;DHT22;7597;53.590;10.020;2023-02-08T11:17:32;10.20;1.00
15003;DHT22;7597;53.590;10.020;2023-02-08T11:20:00;10.80;1.00
15003;DHT22;7597;53.590;10.020;2023-02-08T11:22:27;10.30;1.00
15003;DHT22;7597;53.590;10.020;2023-02-08T11:25:01;10.70;1.00
15003;DHT22;7597;53.590;10.020;2023-02-08T11:27:29;11.40;1.00
15003;DHT22;7597;53.590;10.020;2023-02-08T11:32:33;11.90;1.00
15003;DHT22;7597;53.590;10.020;2023-02-08T11:35:32;11.40;1.00
15003;DHT22;7597;53.590;10.020;2023-02-08T11:37:45;11.40;1.00
15003;DHT22;7597;53.590;10.020;2023-02-08T11:40:14;11.40;1.00
15003;DHT22;7597;53.590;10.020;2023-02-08T11:42:38;11.60;1.00
15003;DHT22;7597;53.590;10.020;2023-02-08T11:45:03;12.30;1.00
15003;DHT22;7597;53.590;10.020;2023-02-08T11:47:31;12.00;1.00
15003;DHT22;7597;53.590;10.020;2023-02-08T11:49:58;12.10;1.00
15003;DHT22;7597;53.590;10.020;2023-02-08T11:52:26;11.60;1.00
15003;DHT22;7597;53.590;10.020;2023-02-08T11:54:53;12.60;1.00
15003;DHT22;7597;53.590;10.020;2023-02-08T11:57:21;13.40;1.00
15003;DHT22;7597;53.590;10.020;2023-02-08T11:59:47;13.60;1.00
15003;DHT22;7597;53.590;10.020;2023-02-08T12:02:25;14.30;1.00
15003;DHT22;7597;53.590;10.020;2023-02-08T12:04:53;14.40;1.00
15003;DHT22;7597;53.590;10.020;2023-02-08T12:07:56;13.70;1.00
15003;DHT22;7597;53.590;10.020;2023-02-08T12:10:07;13.30;1.00
15003;DHT22;7597;53.590;10.020;2023-02-08T12:12:38;13.00;1.00
15003;DHT22;7597;53.590;10.020;2023-02-08T12:17:55;11.50;1.00
15003;DHT22;7597;53.590;10.020;2023-02-08T12:20:28;11.80;1.00
15003;DHT22;7597;53.590;10.020;2023-02-08T12:23:29;11.60;1.00
15003;DHT22;7597;53.590;10.020;2023-02-08T12:27:06;11.50;1.00
15003;DHT22;7597;53.590;10.020;2023-02-08T12:28:56;11.70;1.00
15003;DHT22;7597;53.590;10.020;2023-02-08T12:31:26;11.80;1.00
15003;DHT22;7597;53.590;10.020;2023-02-08T12:34:04;11.20;1.00
15003;DHT22;7597;53.590;10.020;2023-02-08T12:36:38;10.20;1.00
15003;DHT22;7597;53.590;10.020;2023-02-08T12:39:15;10.20;1.00
15003;DHT22;7597;53.590;10.020;2023-02-08T12:44:34;8.00;1.00
15003;DHT22;7597;53.590;10.020;2023-02-08T12:50:39;7.00;1.00
15003;DHT22;7597;53.590;10.020;2023-02-08T12:52:48;7.00;1.00
15003;DHT22;7597;53.590;10.020;2023-02-08T12:55:24;7.20;1.00
15003;DHT22;7597;53.590;10.020;2023-02-08T12:57:53;6.90;1.00
15003;DHT22;7597;53.590;10.020;2023-02-08T13:00:22;6.70;1.00
15003;DHT22;7597;53.590;10.020;2023-02-08T13:05:48;7.00;1.00
15003;DHT22;7597;53.590;10.020;2023-02-08T13:08:25;6.90;1.00
15003;DHT22;7597;53.590;10.020;2023-02-08T13:10:48;6.60;1.00
15003;DHT22;7597;53.590;10.020;2023-02-08T13:13:18;7.00;1.00
15003;DHT22;7597;53.590;10.020;2023-02-08T13:15:47;7.50;1.00
15003;DHT22;7597;53.590;10.020;2023-02-08T13:18:19;7.30;1.00
15003;DHT22;7597;53.590;10.020;2023-02-08T13:20:46;7.30;1.00
15003;DHT22;7597;53.590;10.020;2023-02-08T13:23:19;6.80;1.00
15003;DHT22;7597;53.590;10.020;2023-02-08T13:25:43;6.70;1.00
15003;DHT22;7597;53.590;10.020;2023-02-08T13:28:16;6.80;1.00
15003;DHT22;7597;53.590;10.020;2023-02-08T13:30:39;6.80;1.00
15003;DHT22;7597;53.590;10.020;2023-02-08T13:33:17;6.80;1.00
15003;DHT22;7597;53.590;10.020;2023-02-08T13:35:47;6.80;1.00
15003;DHT22;7597;53.590;10.020;2023-02-08T13:38:27;6.80;1.00
15003;DHT22;7597;53.590;10.020;2023-02-08T13:43:50;6.60;1.00
15003;DHT22;7597;53.590;10.020;2023-02-08T13:46:16;6.60;1.00
15003;DHT22;7597;53.590;10.020;2023-02-08T13:48:47;6.90;1.00
15003;DHT22;7597;53.590;10.020;2023-02-08T13:51:52;6.90;1.00
15003;DHT22;7597;53.590;10.020;2023-02-08T13:54:08;7.10;1.00
15003;DHT22;7597;53.590;10.020;2023-02-08T13:56:39;7.30;1.00
15003;DHT22;7597;53.590;10.020;2023-02-08T13:59:30;7.00;1.00
15003;DHT22;7597;53.590;10.020;2023-02-08T14:04:54;7.10;1.00
15003;DHT22;7597;53.590;10.020;2023-02-08T14:13:06;7.00;1.00
15003;DHT22;7597;53.590;10.020;2023-02-08T14:15:32;6.90;1.00
15003;DHT22;7597;53.590;10.020;2023-02-08T14:17:58;6.90;1.00
15003;DHT22;7597;53.590;10.020;2023-02-08T14:20:27;6.90;1.00
15003;DHT22;7597;53.590;10.020;2023-02-08T14:22:56;6.80;1.00
15003;DHT22;7597;53.590;10.020;2023-02-08T14:25:22;6.70;1.00
15003;DHT22;7597;53.590;10.020;2023-02-08T14:27:57;6.70;1.00
15003;DHT22;7597;53.590;10.020;2023-02-08T14:30:27;6.40;1.00
15003;DHT22;7597;53.590;10.020;2023-02-08T14:33:09;6.40;1.00
15003;DHT22;7597;53.590;10.020;2023-02-08T14:35:36;6.60;1.00
15003;DHT22;7597;53.590;10.020;2023-02-08T14:40:46;6.60;1.00
15003;DHT22;7597;53.590;10.020;2023-02-08T14:43:34;6.70;1.00
15003;DHT22;7597;53.590;10.020;2023-02-08T14:48:43;6.60;1.00
15003;DHT22;7597;53.590;10.020;2023-02-08T14:51:15;6.50;1.00
15003;DHT22;7597;53.590;10.020;2023-02-08T14:53:52;6.50;1.00
15003;DHT22;7597;53.590;10.020;2023-02-08T14:56:19;6.50;1.00
15003;DHT22;7597;53.590;10.020;2023-02-08T14:58:49;6.40;1.00
15003;DHT22;7597;53.590;10.020;2023-02-08T15:04:14;6.30;1.00
15003;DHT22;7597;53.590;10.020;2023-02-08T15:06:53;6.30;1.00
15003;DHT22;7597;53.590;10.020;2023-02-08T15:09:23;6.20;1.00
15003;DHT22;7597;53.590;10.020;2023-02-08T15:11:57;6.00;1.00
15003;DHT22;7597;53.590;10.020;2023-02-08T15:14:21;6.00;1.00
15003;DHT22;7597;53.590;10.020;2023-02-08T15:16:48;6.00;1.00
15003;DHT22;7597;53.590;10.020;2023-02-08T15:19:31;5.90;1.00
15003;DHT22;7597;53.590;10.020;2023-02-08T15:22:35;6.00;1.00
15003;DHT22;7597;53.590;10.020;2023-02-08T15:24:50;5.80;1.00
15003;DHT22;7597;53.590;10.020;2023-02-08T15:27:19;5.80;1.00
15003;DHT22;7597;53.590;10.020;2023-02-08T15:29:45;5.90;1.00
15003;DHT22;7597;53.590;10.020;2023-02-08T15:32:12;5.70;1.00
15003;DHT22;7597;53.590;10.020;2023-02-08T15:34:41;5.90;1.00
15003;DHT22;7597;53.590;10.020;2023-02-08T15:37:06;5.40;1.00
15003;DHT22;7597;53.590;10.020;2023-02-08T15:39:33;5.30;1.00
15003;DHT22;7597;53.590;10.020;2023-02-08T15:41:59;5.20;1.00
15003;DHT22;7597;53.590;10.020;2023-02-08T15:44:29;5.10;1.00
15003;DHT22;7597;53.590;10.020;2023-02-08T15:46:57;5.10;1.00
15003;DHT22;7597;53.590;10.020;2023-02-08T15:49:27;5.00;1.00
15003;DHT22;7597;53.590;10.020;2023-02-08T15:51:53;4.90;1.00
15003;DHT22;7597;53.590;10.020;2023-02-08T15:54:19;4.80;1.00
15003;DHT22;7597;53.590;10.020;2023-02-08T15:56:50;4.70;1.00
15003;DHT22;7597;53.590;10.020;2023-02-08T15:59:18;4.50;1.00
15003;DHT22;7597;53.590;10.020;2023-02-08T16:01:45;4.40;1.00
15003;DHT22;7597;53.590;10.020;2023-02-08T16:04:09;4.30;1.00
15003;DHT22;7597;53.590;10.020;2023-02-08T16:06:37;4.20;1.00
15003;DHT22;7597;53.590;10.020;2023-02-08T16:09:03;4.00;1.00
15003;DHT22;7597;53.590;10.020;2023-02-08T16:11:31;3.90;1.00
15003;DHT22;7597;53.590;10.020;2023-02-08T16:13:57;3.90;1.00
15003;DHT22;7597;53.590;10.020;2023-02-08T16:16:25;3.80;1.00
15003;DHT22;7597;53.590;10.020;2023-02-08T16:18:59;3.70;1.00
15003;DHT22;7597;53.590;10.020;2023-02-08T16:21:33;3.60;1.00
15003;DHT22;7597;53.590;10.020;2023-02-08T16:24:03;3.60;1.00
15003;DHT22;7597;53.590;10.020;2023-02-08T16:26:27;3.50;1.00
15003;DHT22;7597;53.590;10.020;2023-02-08T16:28:58;3.40;1.00
15003;DHT22;7597;53.590;10.020;2023-02-08T16:31:25;3.40;1.00
15003;DHT22;7597;53.590;10.020;2023-02-08T16:33:56;3.40;1.00
15003;DHT22;7597;53.590;10.020;2023-02-08T16:36:22;3.30;1.00
15003;DHT22;7597;53.590;10.020;2023-02-08T16:39:21;3.30;1.00
15003;DHT22;7597;53.590;10.020;2023-02-08T16:42:06;3.20;1.00
15003;DHT22;7597;53.590;10.020;2023-02-08T16:44:33;3.10;1.00
15003;DHT22;7597;53.590;10.020;2023-02-08T16:47:01;3.10;1.00
15003;DHT22;7597;53.590;10.020;2023-02-08T16:49:27;3.00;1.00
15003;DHT22;7597;53.590;10.020;2023-02-08T16:51:56;2.90;1.00
15003;DHT22;7597;53.590;10.020;2023-02-08T16:54:22;2.80;1.00
15003;DHT22;7597;53.590;10.020;2023-02-08T16:56:49;2.70;1.00
15003;DHT22;7597;53.590;10.020;2023-02-08T16:59:16;2.70;1.00
15003;DHT22;7597;53.590;10.020;2023-02-08T17:01:42;3.00;1.00
15003;DHT22;7597;53.590;10.020;2023-02-08T17:04:09;2.70;1.00
15003;DHT22;7597;53.590;10.020;2023-02-08T17:06:36;2.60;1.00
15003;DHT22;7597;53.590;10.020;2023-02-08T17:09:04;2.50;1.00
15003;DHT22;7597;53.590;10.020;2023-02-08T17:11:33;2.70;1.00
15003;DHT22;7597;53.590;10.020;2023-02-08T17:14:03;2.70;1.00
15003;DHT22;7597;53.590;10.020;2023-02-08T17:16:33;2.50;1.00
15003;DHT22;7597;53.590;10.020;2023-02-08T17:18:59;2.50;1.00
15003;DHT22;7597;53.590;10.020;2023-02-08T17:21:26;2.40;1.00
15003;DHT22;7597;53.590;10.020;2023-02-08T17:23:52;2.40;1.00
15003;DHT22;7597;53.590;10.020;2023-02-08T17:26:21;2.40;1.00
15003;DHT22;7597;53.590;10.020;2023-02-08T17:28:48;2.40;1.00